sensor_id;sensor_type;location;lat;lon;timestamp;P1;durP1;ratioP1;P2;durP2;ratioP2
12798;SDS011;19250;42.646;26.980;2023-06-24T14:30:25;5.22;;;4.60;;
12798;SDS011;19250;42.646;26.980;2023-06-24T14:32:52;5.47;;;5.03;;
12798;SDS011;19250;42.646;26.980;2023-06-24T14:35:21;5.07;;;4.57;;
12798;SDS011;19250;42.646;26.980;2023-06-24T14:37:48;6.05;;;5.03;;
12798;SDS011;19250;42.646;26.980;2023-06-24T14:40:16;6.50;;;4.80;;
12798;SDS011;19250;42.646;26.980;2023-06-24T14:42:43;6.22;;;5.00;;
12798;SDS011;19250;42.646;26.980;2023-06-24T14:45:10;6.17;;;5.17;;
12798;SDS011;19250;42.646;26.980;2023-06-24T14:47:38;5.80;;;4.80;;
12798;SDS011;19250;42.646;26.980;2023-06-24T14:50:06;5.70;;;4.80;;
12798;SDS011;19250;42.646;26.980;2023-06-24T14:52:35;6.13;;;5.30;;
12798;SDS011;19250;42.646;26.980;2023-06-24T14:55:02;9.68;;;5.82;;
12798;SDS011;19250;42.646;26.980;2023-06-24T14:57:30;8.63;;;5.22;;
12798;SDS011;19250;42.646;26.980;2023-06-24T14:59:57;6.75;;;5.20;;
12798;SDS011;19250;42.646;26.980;2023-06-24T15:02:24;5.35;;;4.63;;
12798;SDS011;19250;42.646;26.980;2023-06-24T15:04:52;7.10;;;4.95;;
12798;SDS011;19250;42.646;26.980;2023-06-24T15:07:20;5.38;;;4.88;;
12798;SDS011;19250;42.646;26.980;2023-06-24T15:09:48;5.20;;;4.78;;
12798;SDS011;19250;42.646;26.980;2023-06-24T15:12:15;8.15;;;6.78;;
12798;SDS011;19250;42.646;26.980;2023-06-24T15:14:43;7.40;;;5.20;;
12798;SDS011;19250;42.646;26.980;2023-06-24T15:17:11;7.72;;;4.97;;
12798;SDS011;19250;42.646;26.980;2023-06-24T15:19:39;6.30;;;4.82;;
12798;SDS011;19250;42.646;26.980;2023-06-24T15:31:55;6.78;;;5.03;;
12798;SDS011;19250;42.646;26.980;2023-06-24T17:00:22;6.95;;;5.18;;
12798;SDS011;19250;42.646;26.980;2023-06-24T17:02:49;6.25;;;5.03;;
12798;SDS011;19250;42.646;26.980;2023-06-24T17:05:16;6.47;;;5.57;;
12798;SDS011;19250;42.646;26.980;2023-06-24T17:07:44;6.68;;;5.03;;
12798;SDS011;19250;42.646;26.980;2023-06-24T17:10:12;7.35;;;4.90;;
12798;SDS011;19250;42.646;26.980;2023-06-24T17:12:40;6.30;;;5.70;;
12798;SDS011;19250;42.646;26.980;2023-06-24T17:15:07;6.97;;;5.53;;
12798;SDS011;19250;42.646;26.980;2023-06-24T17:17:35;5.82;;;5.30;;
12798;SDS011;19250;42.646;26.980;2023-06-24T17:20:03;8.02;;;5.40;;
12798;SDS011;19250;42.646;26.980;2023-06-24T17:22:32;6.55;;;5.82;;
12798;SDS011;19250;42.646;26.980;2023-06-24T17:24:59;7.28;;;5.50;;
12798;SDS011;19250;42.646;26.980;2023-06-24T17:27:28;5.82;;;5.10;;
12798;SDS011;19250;42.646;26.980;2023-06-24T17:29:56;6.73;;;5.23;;
12798;SDS011;19250;42.646;26.980;2023-06-24T17:32:23;6.40;;;5.20;;
12798;SDS011;19250;42.646;26.980;2023-06-24T18:50:56;7.87;;;6.70;;
12798;SDS011;19250;42.646;26.980;2023-06-24T18:53:25;6.95;;;5.75;;
12798;SDS011;19250;42.646;26.980;2023-06-24T18:55:52;6.70;;;6.10;;
12798;SDS011;19250;42.646;26.980;2023-06-24T18:58:19;9.30;;;7.60;;
12798;SDS011;19250;42.646;26.980;2023-06-24T19:00:46;15.52;;;11.93;;
12798;SDS011;19250;42.646;26.980;2023-06-24T19:03:16;13.30;;;10.40;;
12798;SDS011;19250;42.646;26.980;2023-06-24T19:05:44;8.05;;;7.15;;
12798;SDS011;19250;42.646;26.980;2023-06-24T19:08:11;9.90;;;7.05;;
12798;SDS011;19250;42.646;26.980;2023-06-24T19:10:39;10.68;;;7.28;;
12798;SDS011;19250;42.646;26.980;2023-06-24T19:13:07;13.73;;;10.90;;
12798;SDS011;19250;42.646;26.980;2023-06-24T19:15:34;7.57;;;6.37;;
12798;SDS011;19250;42.646;26.980;2023-06-24T19:18:02;8.03;;;7.10;;
12798;SDS011;19250;42.646;26.980;2023-06-24T19:20:30;9.70;;;7.45;;
12798;SDS011;19250;42.646;26.980;2023-06-24T19:22:57;13.52;;;8.50;;
12798;SDS011;19250;42.646;26.980;2023-06-24T19:25:24;10.15;;;7.60;;
12798;SDS011;19250;42.646;26.980;2023-06-24T19:27:53;8.48;;;7.68;;
12798;SDS011;19250;42.646;26.980;2023-06-24T19:30:20;10.77;;;7.90;;
12798;SDS011;19250;42.646;26.980;2023-06-24T19:32:47;9.38;;;8.13;;
12798;SDS011;19250;42.646;26.980;2023-06-24T19:38:00;11.93;;;8.80;;
12798;SDS011;19250;42.646;26.980;2023-06-24T19:40:27;10.27;;;7.80;;
12798;SDS011;19250;42.646;26.980;2023-06-24T19:42:56;8.10;;;7.30;;
12798;SDS011;19250;42.646;26.980;2023-06-24T19:45:23;7.60;;;6.13;;
12798;SDS011;19250;42.646;26.980;2023-06-24T19:47:51;8.57;;;6.28;;
12798;SDS011;19250;42.646;26.980;2023-06-24T19:50:19;8.77;;;7.47;;
12798;SDS011;19250;42.646;26.980;2023-06-24T19:52:46;7.72;;;6.88;;
12798;SDS011;19250;42.646;26.980;2023-06-24T19:55:13;10.15;;;7.10;;
12798;SDS011;19250;42.646;26.980;2023-06-24T19:57:41;7.75;;;6.95;;
12798;SDS011;19250;42.646;26.980;2023-06-24T20:00:10;7.78;;;7.07;;
12798;SDS011;19250;42.646;26.980;2023-06-24T20:02:37;10.18;;;8.13;;
12798;SDS011;19250;42.646;26.980;2023-06-24T20:05:05;9.18;;;7.07;;
12798;SDS011;19250;42.646;26.980;2023-06-24T20:07:33;7.75;;;6.38;;
12798;SDS011;19250;42.646;26.980;2023-06-24T20:10:00;7.70;;;6.90;;
12798;SDS011;19250;42.646;26.980;2023-06-24T20:12:27;7.97;;;6.68;;
12798;SDS011;19250;42.646;26.980;2023-06-24T20:14:54;6.80;;;6.13;;
12798;SDS011;19250;42.646;26.980;2023-06-24T20:17:23;8.17;;;6.70;;
12798;SDS011;19250;42.646;26.980;2023-06-24T20:19:50;6.93;;;6.28;;
12798;SDS011;19250;42.646;26.980;2023-06-24T20:22:17;8.40;;;6.82;;
12798;SDS011;19250;42.646;26.980;2023-06-24T20:24:45;7.30;;;6.05;;
12798;SDS011;19250;42.646;26.980;2023-06-24T20:27:13;7.00;;;6.30;;
12798;SDS011;19250;42.646;26.980;2023-06-24T20:29:40;6.90;;;6.22;;
12798;SDS011;19250;42.646;26.980;2023-06-24T20:32:07;9.50;;;6.57;;
12798;SDS011;19250;42.646;26.980;2023-06-24T20:34:36;7.67;;;5.97;;
12798;SDS011;19250;42.646;26.980;2023-06-24T20:37:04;7.22;;;6.53;;
12798;SDS011;19250;42.646;26.980;2023-06-24T20:39:31;7.28;;;6.53;;
12798;SDS011;19250;42.646;26.980;2023-06-24T20:41:59;8.38;;;5.97;;
12798;SDS011;19250;42.646;26.980;2023-06-24T20:44:26;7.93;;;5.88;;
12798;SDS011;19250;42.646;26.980;2023-06-24T20:46:53;6.70;;;6.07;;
12798;SDS011;19250;42.646;26.980;2023-06-24T20:49:21;9.30;;;6.20;;
12798;SDS011;19250;42.646;26.980;2023-06-24T20:51:49;8.07;;;5.97;;
12798;SDS011;19250;42.646;26.980;2023-06-24T20:54:17;7.63;;;6.03;;
12798;SDS011;19250;42.646;26.980;2023-06-24T20:56:44;8.23;;;6.13;;
12798;SDS011;19250;42.646;26.980;2023-06-24T20:59:11;7.13;;;6.28;;
12798;SDS011;19250;42.646;26.980;2023-06-24T21:01:38;7.22;;;6.00;;
12798;SDS011;19250;42.646;26.980;2023-06-24T21:04:06;6.93;;;6.23;;
12798;SDS011;19250;42.646;26.980;2023-06-24T21:06:33;6.93;;;6.23;;
12798;SDS011;19250;42.646;26.980;2023-06-24T21:09:02;6.85;;;6.15;;
12798;SDS011;19250;42.646;26.980;2023-06-24T21:11:29;6.88;;;6.10;;
12798;SDS011;19250;42.646;26.980;2023-06-24T21:13:56;7.45;;;6.10;;
12798;SDS011;19250;42.646;26.980;2023-06-24T21:16:23;8.27;;;6.65;;
12798;SDS011;19250;42.646;26.980;2023-06-24T21:18:51;7.53;;;6.83;;
12798;SDS011;19250;42.646;26.980;2023-06-24T21:21:18;9.47;;;7.20;;
12798;SDS011;19250;42.646;26.980;2023-06-24T21:23:45;9.77;;;7.80;;
12798;SDS011;19250;42.646;26.980;2023-06-24T21:26:14;8.52;;;7.60;;
12798;SDS011;19250;42.646;26.980;2023-06-24T21:28:41;9.87;;;7.57;;
12798;SDS011;19250;42.646;26.980;2023-06-24T21:31:08;8.60;;;7.70;;
12798;SDS011;19250;42.646;26.980;2023-06-24T21:33:36;11.00;;;7.82;;
12798;SDS011;19250;42.646;26.980;2023-06-24T21:36:06;8.85;;;7.95;;
12798;SDS011;19250;42.646;26.980;2023-06-24T21:38:33;8.77;;;7.85;;
12798;SDS011;19250;42.646;26.980;2023-06-24T21:41:00;9.00;;;7.80;;
12798;SDS011;19250;42.646;26.980;2023-06-24T21:43:29;8.25;;;7.40;;
12798;SDS011;19250;42.646;26.980;2023-06-24T21:45:58;9.60;;;7.43;;
12798;SDS011;19250;42.646;26.980;2023-06-24T21:48:26;8.93;;;7.82;;
12798;SDS011;19250;42.646;26.980;2023-06-24T21:50:53;9.00;;;8.10;;
12798;SDS011;19250;42.646;26.980;2023-06-24T21:53:20;8.65;;;7.75;;
12798;SDS011;19250;42.646;26.980;2023-06-24T21:55:48;9.63;;;7.83;;
12798;SDS011;19250;42.646;26.980;2023-06-24T21:58:15;9.70;;;8.20;;
12798;SDS011;19250;42.646;26.980;2023-06-24T22:00:44;8.30;;;7.40;;
12798;SDS011;19250;42.646;26.980;2023-06-24T22:03:12;7.97;;;7.15;;
12798;SDS011;19250;42.646;26.980;2023-06-24T22:05:39;9.60;;;7.63;;
12798;SDS011;19250;42.646;26.980;2023-06-24T22:08:07;12.32;;;7.50;;
12798;SDS011;19250;42.646;26.980;2023-06-24T22:10:34;8.57;;;7.37;;
12798;SDS011;19250;42.646;26.980;2023-06-24T22:13:01;8.60;;;7.70;;
12798;SDS011;19250;42.646;26.980;2023-06-24T22:15:28;8.43;;;7.50;;
12798;SDS011;19250;42.646;26.980;2023-06-24T22:17:57;8.57;;;7.25;;
12798;SDS011;19250;42.646;26.980;2023-06-24T22:20:24;8.67;;;7.10;;
12798;SDS011;19250;42.646;26.980;2023-06-24T22:22:52;9.00;;;7.38;;
12798;SDS011;19250;42.646;26.980;2023-06-24T22:25:19;8.02;;;6.95;;
12798;SDS011;19250;42.646;26.980;2023-06-24T22:27:46;8.10;;;7.30;;
12798;SDS011;19250;42.646;26.980;2023-06-24T22:30:13;8.23;;;7.43;;
12798;SDS011;19250;42.646;26.980;2023-06-24T22:32:41;8.65;;;7.75;;
